EFW1RF EGKK-LEAL
Flight info
| Callsign | EFW1RF |
|---|---|
| Flight time | N/A |
| Altitude | 35000 |
| Route | SFD4Z SFD Y47 BENBO UY47 DRAKE L151 SITET UN859 SOPIL DCT BALAN/N0458F370 DCT LMG DCT PIMQO DCT AGN DCT ANETO DCT POSSY DCT XIMPE DCT RIMES N860 VLC |
| Aircraft | A321/M-SDE3FGIJ1KRWXY/SB1 |
Departure
| Time | 2026-05-05 10:43 |
|---|---|
| Airport | London Gatwick Airport (EGKK) |
Arrival
| Time | N/A |
|---|---|
| Airport | Alicante-Elche Miguel Hernández Airport (LEAL) |
| Time | Latitude | Longitude | Altitude | Speed | Heading |
|---|---|---|---|---|---|
| 2026-05-05 08:57 | 51.15482 | -0.16967 | 210 ft | 0 kts | 348° |
| 2026-05-05 10:33 | 51.15468 | -0.16962 | 210 ft | 2 kts | 348° |
| 2026-05-05 10:33 | 51.15444 | -0.16951 | 210 ft | 4 kts | 326° |
| 2026-05-05 10:33 | 51.15435 | -0.16929 | 210 ft | 3 kts | 258° |
| 2026-05-05 10:33 | 51.15438 | -0.16910 | 210 ft | 0 kts | 257° |
| 2026-05-05 10:37 | 51.15438 | -0.16911 | 210 ft | 1 kts | 257° |
| 2026-05-05 10:37 | 51.15435 | -0.16932 | 210 ft | 5 kts | 259° |
| 2026-05-05 10:38 | 51.15426 | -0.17010 | 210 ft | 8 kts | 255° |
| 2026-05-05 10:38 | 51.15405 | -0.17143 | 216 ft | 16 kts | 246° |
| 2026-05-05 10:38 | 51.15364 | -0.17317 | 212 ft | 15 kts | 253° |
| 2026-05-05 10:38 | 51.15270 | -0.17350 | 210 ft | 16 kts | 174° |
| 2026-05-05 10:39 | 51.15213 | -0.17483 | 214 ft | 16 kts | 257° |
| 2026-05-05 10:39 | 51.15188 | -0.17666 | 219 ft | 17 kts | 257° |
| 2026-05-05 10:39 | 51.15162 | -0.17852 | 218 ft | 17 kts | 257° |
| 2026-05-05 10:39 | 51.15134 | -0.18056 | 211 ft | 20 kts | 257° |
| 2026-05-05 10:40 | 51.15102 | -0.18291 | 209 ft | 23 kts | 257° |
| 2026-05-05 10:40 | 51.15065 | -0.18557 | 209 ft | 26 kts | 257° |
| 2026-05-05 10:40 | 51.15023 | -0.18853 | 216 ft | 29 kts | 257° |
| 2026-05-05 10:40 | 51.14977 | -0.19180 | 212 ft | 32 kts | 257° |
| 2026-05-05 10:41 | 51.14936 | -0.19481 | 212 ft | 24 kts | 258° |
| 2026-05-05 10:41 | 51.14905 | -0.19714 | 213 ft | 21 kts | 258° |
| 2026-05-05 10:41 | 51.14874 | -0.19932 | 211 ft | 20 kts | 257° |
| 2026-05-05 10:41 | 51.14840 | -0.20169 | 209 ft | 23 kts | 257° |
| 2026-05-05 10:42 | 51.14774 | -0.20643 | 210 ft | 13 kts | 258° |
| 2026-05-05 10:42 | 51.14692 | -0.20717 | 211 ft | 18 kts | 173° |
| 2026-05-05 10:42 | 51.14598 | -0.20596 | 214 ft | 22 kts | 77° |
| 2026-05-05 10:43 | 51.14658 | -0.20185 | 214 ft | 65 kts | 78° |
| 2026-05-05 10:43 | 51.14798 | -0.19156 | 214 ft | 125 kts | 77° |
| 2026-05-05 10:43 | 51.15021 | -0.17545 | 268 ft | 166 kts | 77° |
| 2026-05-05 10:43 | 51.15256 | -0.15783 | 941 ft | 164 kts | 76° |
| 2026-05-05 10:44 | 51.15506 | -0.13972 | 1584 ft | 172 kts | 75° |
| 2026-05-05 10:44 | 51.15772 | -0.12056 | 2058 ft | 184 kts | 75° |
| 2026-05-05 10:44 | 51.16034 | -0.09987 | 2518 ft | 198 kts | 79° |
| 2026-05-05 10:44 | 51.15894 | -0.07723 | 2962 ft | 218 kts | 107° |
| 2026-05-05 10:45 | 51.14983 | -0.05686 | 3414 ft | 240 kts | 139° |
| 2026-05-05 10:45 | 51.13398 | -0.04565 | 3864 ft | 261 kts | 165° |
| 2026-05-05 10:45 | 51.11568 | -0.04017 | 4458 ft | 273 kts | 168° |
| 2026-05-05 10:45 | 51.09640 | -0.03452 | 4914 ft | 290 kts | 166° |
| 2026-05-05 10:46 | 51.07623 | -0.02615 | 5307 ft | 309 kts | 162° |
| 2026-05-05 10:46 | 51.05499 | -0.01639 | 5743 ft | 326 kts | 162° |
| 2026-05-05 10:46 | 51.03303 | -0.00613 | 6347 ft | 335 kts | 162° |
| 2026-05-05 10:46 | 51.01052 | 0.00445 | 7079 ft | 340 kts | 162° |
| 2026-05-05 10:47 | 50.98771 | 0.01525 | 7824 ft | 343 kts | 162° |
| 2026-05-05 10:47 | 50.96476 | 0.02614 | 8636 ft | 345 kts | 162° |
| 2026-05-05 10:47 | 50.94163 | 0.03711 | 9398 ft | 347 kts | 162° |
| 2026-05-05 10:47 | 50.91835 | 0.04813 | 10110 ft | 351 kts | 162° |
| 2026-05-05 10:48 | 50.89484 | 0.05920 | 10793 ft | 354 kts | 162° |
| 2026-05-05 10:48 | 50.87112 | 0.07034 | 11457 ft | 357 kts | 162° |
| 2026-05-05 10:48 | 50.84702 | 0.08077 | 12116 ft | 361 kts | 169° |
| 2026-05-05 10:48 | 50.82181 | 0.08189 | 12768 ft | 364 kts | 183° |
| 2026-05-05 10:49 | 50.79643 | 0.07858 | 13414 ft | 367 kts | 184° |
| 2026-05-05 10:49 | 50.77087 | 0.07506 | 14061 ft | 370 kts | 184° |
| 2026-05-05 10:49 | 50.74543 | 0.07183 | 14701 ft | 372 kts | 184° |
| 2026-05-05 10:49 | 50.71916 | 0.06868 | 15333 ft | 375 kts | 183° |
| 2026-05-05 10:50 | 50.69305 | 0.06567 | 15929 ft | 377 kts | 183° |
| 2026-05-05 10:50 | 50.66709 | 0.06275 | 16517 ft | 379 kts | 183° |
| 2026-05-05 10:50 | 50.64065 | 0.05982 | 17092 ft | 382 kts | 183° |
| 2026-05-05 10:50 | 50.61408 | 0.05687 | 17645 ft | 384 kts | 183° |
| 2026-05-05 10:51 | 50.58736 | 0.05390 | 18205 ft | 386 kts | 183° |
| 2026-05-05 10:51 | 50.56044 | 0.05091 | 18741 ft | 388 kts | 183° |
| 2026-05-05 10:51 | 50.53336 | 0.04789 | 19263 ft | 391 kts | 183° |
| 2026-05-05 10:51 | 50.50615 | 0.04487 | 19774 ft | 393 kts | 183° |
| 2026-05-05 10:52 | 50.48802 | 0.04287 | 20103 ft | 394 kts | 183° |
| 2026-05-05 10:52 | 50.46057 | 0.03982 | 20598 ft | 396 kts | 183° |
| 2026-05-05 10:52 | 50.43303 | 0.03679 | 21067 ft | 398 kts | 183° |
| 2026-05-05 10:52 | 50.40526 | 0.03376 | 21535 ft | 400 kts | 183° |
| 2026-05-05 10:53 | 50.37739 | 0.03071 | 21979 ft | 402 kts | 183° |
| 2026-05-05 10:53 | 50.34979 | 0.02764 | 22413 ft | 404 kts | 183° |
| 2026-05-05 10:53 | 50.32121 | 0.02449 | 22847 ft | 406 kts | 183° |
| 2026-05-05 10:53 | 50.29291 | 0.02137 | 23242 ft | 408 kts | 183° |
| 2026-05-05 10:54 | 50.26451 | 0.01823 | 23662 ft | 410 kts | 182° |
| 2026-05-05 10:54 | 50.23636 | 0.01516 | 24061 ft | 412 kts | 182° |
| 2026-05-05 10:54 | 50.20774 | 0.01201 | 24461 ft | 414 kts | 182° |
| 2026-05-05 10:54 | 50.17896 | 0.00889 | 24821 ft | 416 kts | 183° |
| 2026-05-05 10:55 | 50.15005 | 0.00571 | 25172 ft | 418 kts | 183° |
| 2026-05-05 10:55 | 50.12099 | 0.00259 | 25518 ft | 419 kts | 182° |
| 2026-05-05 10:55 | 50.09183 | 0.00400 | 25840 ft | 420 kts | 171° |
| 2026-05-05 10:55 | 50.06323 | 0.01357 | 26153 ft | 422 kts | 166° |
| 2026-05-05 10:56 | 50.03467 | 0.02518 | 26465 ft | 424 kts | 165° |
| 2026-05-05 10:56 | 50.00604 | 0.03692 | 26773 ft | 426 kts | 165° |
| 2026-05-05 10:56 | 49.97725 | 0.04853 | 27074 ft | 428 kts | 166° |
| 2026-05-05 10:56 | 49.94836 | 0.06002 | 27361 ft | 429 kts | 166° |
| 2026-05-05 10:57 | 49.91933 | 0.07144 | 27637 ft | 432 kts | 166° |
| 2026-05-05 10:57 | 49.89016 | 0.08285 | 27906 ft | 434 kts | 166° |
| 2026-05-05 10:57 | 49.86078 | 0.09432 | 28176 ft | 436 kts | 166° |
| 2026-05-05 10:57 | 49.83130 | 0.10586 | 28438 ft | 437 kts | 166° |
| 2026-05-05 10:58 | 49.80179 | 0.11741 | 28708 ft | 439 kts | 166° |
| 2026-05-05 10:58 | 49.77247 | 0.12885 | 28941 ft | 440 kts | 166° |
| 2026-05-05 10:58 | 49.74270 | 0.14045 | 29257 ft | 439 kts | 166° |
| 2026-05-05 10:58 | 49.71312 | 0.15196 | 29608 ft | 438 kts | 167° |
| 2026-05-05 10:59 | 49.68362 | 0.16345 | 29928 ft | 437 kts | 167° |
| 2026-05-05 10:59 | 49.65421 | 0.17513 | 30229 ft | 436 kts | 166° |
| 2026-05-05 10:59 | 49.62485 | 0.18703 | 30546 ft | 435 kts | 166° |
| 2026-05-05 10:59 | 49.59563 | 0.19888 | 30881 ft | 433 kts | 166° |
| 2026-05-05 11:00 | 49.56645 | 0.21066 | 31214 ft | 432 kts | 166° |
| 2026-05-05 11:00 | 49.53750 | 0.22231 | 31564 ft | 429 kts | 166° |
| 2026-05-05 11:00 | 49.50863 | 0.23390 | 31889 ft | 427 kts | 166° |
| 2026-05-05 11:00 | 49.47992 | 0.24541 | 32214 ft | 425 kts | 166° |
| 2026-05-05 11:01 | 49.45134 | 0.25684 | 32525 ft | 424 kts | 166° |
| 2026-05-05 11:01 | 49.42321 | 0.26807 | 32829 ft | 422 kts | 166° |
| 2026-05-05 11:01 | 49.39488 | 0.27940 | 33123 ft | 420 kts | 166° |
| 2026-05-05 11:01 | 49.36662 | 0.29066 | 33395 ft | 418 kts | 166° |
| 2026-05-05 11:02 | 49.33853 | 0.30186 | 33661 ft | 417 kts | 166° |
| 2026-05-05 11:02 | 49.31048 | 0.31303 | 33934 ft | 415 kts | 166° |
| 2026-05-05 11:02 | 49.28260 | 0.32446 | 34201 ft | 414 kts | 166° |
| 2026-05-05 11:02 | 49.25483 | 0.33615 | 34423 ft | 413 kts | 165° |
| 2026-05-05 11:03 | 49.22718 | 0.34790 | 34605 ft | 414 kts | 165° |
| 2026-05-05 11:03 | 49.19972 | 0.35949 | 34754 ft | 414 kts | 165° |
| 2026-05-05 11:03 | 49.17189 | 0.37119 | 34904 ft | 415 kts | 166° |
| 2026-05-05 11:04 | 49.11600 | 0.39467 | 34927 ft | 416 kts | 165° |
| 2026-05-05 11:04 | 49.06014 | 0.41816 | 34905 ft | 416 kts | 165° |
| 2026-05-05 11:05 | 49.00425 | 0.44155 | 34893 ft | 416 kts | 165° |
| 2026-05-05 11:05 | 48.94840 | 0.46482 | 34891 ft | 416 kts | 165° |
| 2026-05-05 11:06 | 48.89280 | 0.48781 | 34882 ft | 416 kts | 165° |
| 2026-05-05 11:06 | 48.83693 | 0.51092 | 34881 ft | 416 kts | 165° |
| 2026-05-05 11:07 | 48.78114 | 0.53405 | 34881 ft | 415 kts | 165° |
| 2026-05-05 11:07 | 48.72556 | 0.55589 | 34880 ft | 415 kts | 166° |
| 2026-05-05 11:08 | 48.66966 | 0.57766 | 34875 ft | 415 kts | 166° |
| 2026-05-05 11:08 | 48.61379 | 0.59946 | 34870 ft | 414 kts | 166° |
| 2026-05-05 11:09 | 48.55788 | 0.62122 | 34870 ft | 415 kts | 166° |
| 2026-05-05 11:09 | 48.50236 | 0.64282 | 34870 ft | 415 kts | 165° |
| 2026-05-05 11:10 | 48.44664 | 0.66556 | 34871 ft | 415 kts | 165° |
| 2026-05-05 11:10 | 48.39097 | 0.68823 | 34862 ft | 414 kts | 165° |
| 2026-05-05 11:11 | 48.33523 | 0.71089 | 34860 ft | 414 kts | 165° |
| 2026-05-05 11:11 | 48.27949 | 0.73343 | 34853 ft | 414 kts | 165° |
| 2026-05-05 11:12 | 48.22375 | 0.75580 | 34840 ft | 414 kts | 165° |
| 2026-05-05 11:12 | 48.16810 | 0.77766 | 34840 ft | 413 kts | 165° |
| 2026-05-05 11:13 | 48.11238 | 0.79951 | 34841 ft | 414 kts | 165° |
| 2026-05-05 11:13 | 48.05667 | 0.82141 | 34841 ft | 414 kts | 165° |
| 2026-05-05 11:14 | 48.00094 | 0.84317 | 34832 ft | 414 kts | 165° |
| 2026-05-05 11:14 | 47.94542 | 0.86484 | 34832 ft | 416 kts | 165° |
| 2026-05-05 11:15 | 47.88931 | 0.88669 | 34831 ft | 417 kts | 165° |
| 2026-05-05 11:15 | 47.83314 | 0.90840 | 34831 ft | 417 kts | 166° |
| 2026-05-05 11:16 | 47.77702 | 0.93006 | 34832 ft | 417 kts | 166° |
| 2026-05-05 11:16 | 47.72089 | 0.95188 | 34840 ft | 417 kts | 165° |
| 2026-05-05 11:17 | 47.66475 | 0.97381 | 34841 ft | 417 kts | 165° |
| 2026-05-05 11:17 | 47.60858 | 0.99547 | 34841 ft | 417 kts | 166° |
| 2026-05-05 11:18 | 47.55241 | 1.01701 | 34840 ft | 417 kts | 166° |
| 2026-05-05 11:18 | 47.49659 | 1.03845 | 34848 ft | 417 kts | 166° |
| 2026-05-05 11:19 | 47.44035 | 1.05922 | 34848 ft | 417 kts | 169° |
| 2026-05-05 11:19 | 47.38244 | 1.06391 | 34847 ft | 417 kts | 180° |
| 2026-05-05 11:20 | 47.32435 | 1.06193 | 34842 ft | 417 kts | 180° |
| 2026-05-05 11:20 | 47.26623 | 1.06036 | 34847 ft | 417 kts | 180° |
| 2026-05-05 11:21 | 47.20813 | 1.05898 | 34850 ft | 417 kts | 180° |
| 2026-05-05 11:21 | 47.14998 | 1.05763 | 34850 ft | 418 kts | 180° |
| 2026-05-05 11:22 | 47.09187 | 1.05631 | 34855 ft | 419 kts | 180° |
| 2026-05-05 11:22 | 47.03364 | 1.05505 | 34860 ft | 419 kts | 180° |
| 2026-05-05 11:23 | 46.97561 | 1.05288 | 34861 ft | 420 kts | 181° |
| 2026-05-05 11:23 | 46.91711 | 1.05019 | 34861 ft | 420 kts | 181° |
| 2026-05-05 11:24 | 46.85863 | 1.04765 | 34860 ft | 420 kts | 181° |
| 2026-05-05 11:24 | 46.80019 | 1.04518 | 34867 ft | 421 kts | 181° |
| 2026-05-05 11:25 | 46.74150 | 1.04268 | 34870 ft | 421 kts | 181° |
| 2026-05-05 11:25 | 46.68327 | 1.04023 | 34870 ft | 421 kts | 181° |
| 2026-05-05 11:26 | 46.62459 | 1.03776 | 34878 ft | 422 kts | 181° |
| 2026-05-05 11:26 | 46.56595 | 1.03522 | 34879 ft | 422 kts | 181° |
| 2026-05-05 11:27 | 46.50729 | 1.03302 | 34879 ft | 422 kts | 180° |
| 2026-05-05 11:27 | 46.44855 | 1.03243 | 34889 ft | 421 kts | 180° |
| 2026-05-05 11:28 | 46.38983 | 1.03183 | 34891 ft | 422 kts | 180° |
| 2026-05-05 11:28 | 46.33096 | 1.03115 | 34891 ft | 423 kts | 180° |
| 2026-05-05 11:29 | 46.27209 | 1.03051 | 34890 ft | 423 kts | 180° |
| 2026-05-05 11:29 | 46.21348 | 1.02985 | 34893 ft | 423 kts | 180° |
| 2026-05-05 11:30 | 46.15452 | 1.02919 | 34900 ft | 423 kts | 180° |
| 2026-05-05 11:30 | 46.09566 | 1.02859 | 34900 ft | 423 kts | 180° |
| 2026-05-05 11:31 | 46.03662 | 1.02788 | 34899 ft | 423 kts | 181° |
| 2026-05-05 11:31 | 45.97779 | 1.02723 | 34901 ft | 423 kts | 180° |
| 2026-05-05 11:32 | 45.91870 | 1.02660 | 34901 ft | 424 kts | 181° |
| 2026-05-05 11:32 | 45.86006 | 1.02597 | 34909 ft | 423 kts | 181° |
| 2026-05-05 11:33 | 45.80112 | 1.02911 | 34910 ft | 425 kts | 173° |
| 2026-05-05 11:33 | 45.74279 | 1.04392 | 34910 ft | 426 kts | 171° |
| 2026-05-05 11:34 | 45.68445 | 1.05934 | 34910 ft | 426 kts | 172° |
| 2026-05-05 11:34 | 45.62615 | 1.07434 | 34911 ft | 426 kts | 172° |
| 2026-05-05 11:35 | 45.56786 | 1.08924 | 34909 ft | 425 kts | 172° |
| 2026-05-05 11:35 | 45.50990 | 1.10410 | 34919 ft | 425 kts | 172° |
| 2026-05-05 11:36 | 45.45159 | 1.11894 | 34920 ft | 425 kts | 172° |
| 2026-05-05 11:36 | 45.39341 | 1.13372 | 34921 ft | 425 kts | 172° |
| 2026-05-05 11:37 | 45.33518 | 1.14856 | 34930 ft | 425 kts | 172° |
| 2026-05-05 11:37 | 45.27697 | 1.16329 | 34930 ft | 425 kts | 172° |
| 2026-05-05 11:38 | 45.21874 | 1.17802 | 34930 ft | 425 kts | 172° |
| 2026-05-05 11:38 | 45.16039 | 1.18979 | 34933 ft | 422 kts | 181° |
| 2026-05-05 11:39 | 45.10249 | 1.17940 | 34941 ft | 418 kts | 192° |
| 2026-05-05 11:39 | 45.04560 | 1.16403 | 34938 ft | 419 kts | 192° |
| 2026-05-05 11:40 | 44.98835 | 1.14924 | 34939 ft | 418 kts | 192° |
| 2026-05-05 11:40 | 44.93099 | 1.13458 | 34941 ft | 418 kts | 192° |
| 2026-05-05 11:41 | 44.87370 | 1.11994 | 34943 ft | 418 kts | 192° |
| 2026-05-05 11:41 | 44.82615 | 1.10783 | 34948 ft | 418 kts | 192° |
| 2026-05-05 11:42 | 44.75961 | 1.09093 | 34943 ft | 418 kts | 192° |
| 2026-05-05 11:42 | 44.71169 | 1.07874 | 34941 ft | 418 kts | 192° |
| 2026-05-05 11:43 | 44.65450 | 1.06422 | 34951 ft | 417 kts | 192° |
| 2026-05-05 11:43 | 44.59774 | 1.04993 | 34959 ft | 417 kts | 192° |
| 2026-05-05 11:44 | 44.54067 | 1.03550 | 34958 ft | 416 kts | 192° |
| 2026-05-05 11:44 | 44.48369 | 1.02117 | 34962 ft | 416 kts | 193° |
| 2026-05-05 11:45 | 44.42674 | 1.00686 | 34958 ft | 415 kts | 193° |
| 2026-05-05 11:45 | 44.36981 | 0.99259 | 34957 ft | 415 kts | 193° |
| 2026-05-05 11:46 | 44.31289 | 0.97832 | 34961 ft | 415 kts | 193° |
| 2026-05-05 11:46 | 44.25605 | 0.96411 | 34959 ft | 415 kts | 193° |
| 2026-05-05 11:47 | 44.19947 | 0.95000 | 34960 ft | 415 kts | 193° |
| 2026-05-05 11:47 | 44.14257 | 0.93584 | 34962 ft | 415 kts | 193° |
| 2026-05-05 11:48 | 44.05721 | 0.91467 | 34970 ft | 415 kts | 193° |
| 2026-05-05 11:48 | 44.00026 | 0.90056 | 34971 ft | 416 kts | 193° |
| 2026-05-05 11:49 | 43.94338 | 0.88648 | 34971 ft | 413 kts | 194° |
| 2026-05-05 11:49 | 43.88734 | 0.87269 | 34969 ft | 411 kts | 194° |
| 2026-05-05 11:50 | 43.83109 | 0.85774 | 34971 ft | 411 kts | 195° |
| 2026-05-05 11:50 | 43.77483 | 0.84253 | 34970 ft | 411 kts | 195° |
| 2026-05-05 11:51 | 43.71856 | 0.82750 | 34971 ft | 411 kts | 194° |
| 2026-05-05 11:51 | 43.66269 | 0.81259 | 34970 ft | 410 kts | 195° |
| 2026-05-05 11:52 | 43.60656 | 0.79763 | 34971 ft | 411 kts | 195° |
| 2026-05-05 11:52 | 43.55047 | 0.78277 | 34971 ft | 411 kts | 195° |
| 2026-05-05 11:53 | 43.49441 | 0.76789 | 34970 ft | 409 kts | 195° |
| 2026-05-05 11:53 | 43.43835 | 0.75307 | 34971 ft | 410 kts | 195° |
| 2026-05-05 11:54 | 43.38243 | 0.73825 | 34971 ft | 409 kts | 195° |
| 2026-05-05 11:54 | 43.32645 | 0.72348 | 34971 ft | 409 kts | 195° |
| 2026-05-05 11:55 | 43.27100 | 0.70888 | 34971 ft | 409 kts | 195° |
| 2026-05-05 11:55 | 43.21512 | 0.69422 | 34971 ft | 408 kts | 195° |
| 2026-05-05 11:56 | 43.15943 | 0.67962 | 34970 ft | 407 kts | 195° |
| 2026-05-05 11:56 | 43.10371 | 0.66500 | 34979 ft | 406 kts | 195° |
| 2026-05-05 11:57 | 43.04840 | 0.65050 | 34982 ft | 406 kts | 195° |
| 2026-05-05 11:57 | 42.99290 | 0.63601 | 34980 ft | 405 kts | 195° |
| 2026-05-05 11:58 | 42.93743 | 0.62150 | 34969 ft | 404 kts | 195° |
| 2026-05-05 11:58 | 42.88229 | 0.60711 | 34970 ft | 403 kts | 195° |
| 2026-05-05 11:59 | 42.82738 | 0.59291 | 34970 ft | 403 kts | 195° |
| 2026-05-05 11:59 | 42.77214 | 0.57870 | 34971 ft | 403 kts | 195° |
| 2026-05-05 12:00 | 42.71724 | 0.56453 | 34969 ft | 401 kts | 196° |
| 2026-05-05 12:00 | 42.66530 | 0.54127 | 34974 ft | 393 kts | 208° |
| 2026-05-05 12:01 | 42.61597 | 0.50925 | 34970 ft | 391 kts | 209° |
| 2026-05-05 12:01 | 42.56694 | 0.47758 | 34976 ft | 390 kts | 209° |
| 2026-05-05 12:02 | 42.51786 | 0.44611 | 34969 ft | 389 kts | 209° |
| 2026-05-05 12:02 | 42.46893 | 0.41487 | 34974 ft | 389 kts | 209° |
| 2026-05-05 12:03 | 42.42030 | 0.38393 | 34973 ft | 388 kts | 209° |
| 2026-05-05 12:03 | 42.37151 | 0.35304 | 34961 ft | 386 kts | 210° |
| 2026-05-05 12:04 | 42.32281 | 0.32220 | 34968 ft | 386 kts | 209° |
| 2026-05-05 12:04 | 42.27417 | 0.29141 | 34958 ft | 385 kts | 209° |
| 2026-05-05 12:05 | 42.22566 | 0.26073 | 34957 ft | 384 kts | 209° |
| 2026-05-05 12:05 | 42.17728 | 0.23019 | 34958 ft | 383 kts | 209° |
| 2026-05-05 12:06 | 42.12930 | 0.19996 | 34958 ft | 383 kts | 210° |
| 2026-05-05 12:06 | 42.08106 | 0.16974 | 34955 ft | 383 kts | 208° |
| 2026-05-05 12:07 | 42.02889 | 0.15147 | 34960 ft | 394 kts | 194° |
| 2026-05-05 12:07 | 41.97423 | 0.14372 | 34958 ft | 394 kts | 193° |
| 2026-05-05 12:08 | 41.91980 | 0.13587 | 34961 ft | 393 kts | 193° |
| 2026-05-05 12:08 | 41.86536 | 0.12779 | 34960 ft | 393 kts | 193° |
| 2026-05-05 12:09 | 41.81090 | 0.11966 | 34959 ft | 393 kts | 193° |
| 2026-05-05 12:09 | 41.75650 | 0.11155 | 34961 ft | 393 kts | 193° |
| 2026-05-05 12:10 | 41.70253 | 0.10352 | 34960 ft | 393 kts | 193° |
| 2026-05-05 12:10 | 41.64800 | 0.09540 | 34960 ft | 394 kts | 193° |
| 2026-05-05 12:11 | 41.59334 | 0.08732 | 34951 ft | 394 kts | 194° |
| 2026-05-05 12:11 | 41.53920 | 0.07932 | 34937 ft | 391 kts | 194° |
| 2026-05-05 12:12 | 41.48492 | 0.07125 | 34941 ft | 392 kts | 194° |
| 2026-05-05 12:12 | 41.43087 | 0.06326 | 34940 ft | 393 kts | 194° |
| 2026-05-05 12:13 | 41.37662 | 0.05525 | 34944 ft | 392 kts | 194° |
| 2026-05-05 12:13 | 41.32226 | 0.04727 | 34937 ft | 393 kts | 194° |
| 2026-05-05 12:14 | 41.26791 | 0.03928 | 34941 ft | 393 kts | 194° |
| 2026-05-05 12:14 | 41.21388 | 0.03136 | 34938 ft | 392 kts | 194° |
| 2026-05-05 12:15 | 41.15957 | 0.02340 | 34940 ft | 393 kts | 194° |
| 2026-05-05 12:15 | 41.10513 | 0.01547 | 34942 ft | 393 kts | 194° |
| 2026-05-05 12:16 | 41.05090 | 0.00753 | 34939 ft | 391 kts | 194° |
| 2026-05-05 12:16 | 40.99680 | -0.00037 | 34937 ft | 391 kts | 194° |
| 2026-05-05 12:17 | 40.94234 | -0.00847 | 34932 ft | 398 kts | 193° |
| 2026-05-05 12:17 | 40.88682 | -0.01661 | 34947 ft | 407 kts | 193° |
| 2026-05-05 12:18 | 40.83046 | -0.02475 | 34945 ft | 407 kts | 193° |
| 2026-05-05 12:18 | 40.77420 | -0.03289 | 34945 ft | 406 kts | 193° |
| 2026-05-05 12:19 | 40.71796 | -0.04102 | 34930 ft | 406 kts | 193° |
| 2026-05-05 12:19 | 40.66170 | -0.04913 | 34929 ft | 406 kts | 193° |
| 2026-05-05 12:20 | 40.60599 | -0.05717 | 34931 ft | 406 kts | 193° |
| 2026-05-05 12:20 | 40.55025 | -0.06731 | 34923 ft | 399 kts | 200° |
| 2026-05-05 12:21 | 40.49723 | -0.08783 | 34922 ft | 396 kts | 203° |
| 2026-05-05 12:21 | 40.44436 | -0.10910 | 34919 ft | 397 kts | 203° |
| 2026-05-05 12:22 | 40.39148 | -0.13008 | 34921 ft | 397 kts | 203° |
| 2026-05-05 12:22 | 40.33900 | -0.15082 | 34928 ft | 396 kts | 203° |
| 2026-05-05 12:23 | 40.28615 | -0.17164 | 34931 ft | 397 kts | 203° |
| 2026-05-05 12:23 | 40.23336 | -0.19244 | 34931 ft | 396 kts | 203° |
| 2026-05-05 12:24 | 40.18058 | -0.21318 | 34931 ft | 396 kts | 203° |
| 2026-05-05 12:24 | 40.12783 | -0.23387 | 34929 ft | 395 kts | 203° |
| 2026-05-05 12:25 | 40.07511 | -0.25457 | 34924 ft | 396 kts | 203° |
| 2026-05-05 12:25 | 40.02231 | -0.27519 | 34920 ft | 396 kts | 203° |
| 2026-05-05 12:26 | 39.96947 | -0.29584 | 34922 ft | 396 kts | 203° |
| 2026-05-05 12:26 | 39.91722 | -0.31617 | 34916 ft | 393 kts | 203° |
| 2026-05-05 12:27 | 39.86475 | -0.33661 | 34913 ft | 393 kts | 203° |
| 2026-05-05 12:27 | 39.81230 | -0.35697 | 34911 ft | 393 kts | 203° |
| 2026-05-05 12:28 | 39.75981 | -0.37725 | 34910 ft | 393 kts | 203° |
| 2026-05-05 12:28 | 39.70747 | -0.39753 | 34909 ft | 392 kts | 203° |
| 2026-05-05 12:29 | 39.68134 | -0.40768 | 34421 ft | 394 kts | 203° |
| 2026-05-05 12:29 | 39.65469 | -0.41801 | 33369 ft | 403 kts | 203° |
| 2026-05-05 12:29 | 39.62757 | -0.42848 | 32430 ft | 409 kts | 203° |
| 2026-05-05 12:29 | 39.60062 | -0.43888 | 31705 ft | 408 kts | 203° |
| 2026-05-05 12:30 | 39.57350 | -0.44931 | 31138 ft | 403 kts | 203° |
| 2026-05-05 12:30 | 39.54674 | -0.45959 | 30586 ft | 398 kts | 203° |
| 2026-05-05 12:30 | 39.52027 | -0.46975 | 30048 ft | 393 kts | 203° |
| 2026-05-05 12:30 | 39.49416 | -0.47980 | 29482 ft | 388 kts | 203° |
| 2026-05-05 12:31 | 39.46830 | -0.48929 | 28916 ft | 384 kts | 202° |
| 2026-05-05 12:31 | 39.44298 | -0.49835 | 28376 ft | 379 kts | 202° |
| 2026-05-05 12:31 | 39.42589 | -0.50445 | 28012 ft | 376 kts | 202° |
| 2026-05-05 12:31 | 39.40084 | -0.51339 | 27487 ft | 371 kts | 202° |
| 2026-05-05 12:32 | 39.36809 | -0.52507 | 26779 ft | 366 kts | 202° |
| 2026-05-05 12:32 | 39.35155 | -0.53097 | 26407 ft | 364 kts | 202° |
| 2026-05-05 12:32 | 39.31931 | -0.54246 | 25726 ft | 360 kts | 202° |
| 2026-05-05 12:32 | 39.30308 | -0.54822 | 25390 ft | 358 kts | 202° |
| 2026-05-05 12:33 | 39.27916 | -0.55673 | 24895 ft | 355 kts | 202° |
| 2026-05-05 12:33 | 39.25542 | -0.56516 | 24392 ft | 353 kts | 202° |
| 2026-05-05 12:33 | 39.23208 | -0.57347 | 23892 ft | 351 kts | 202° |
| 2026-05-05 12:33 | 39.20861 | -0.58182 | 23389 ft | 349 kts | 202° |
| 2026-05-05 12:34 | 39.18529 | -0.59010 | 22900 ft | 346 kts | 202° |
| 2026-05-05 12:34 | 39.16215 | -0.59829 | 22439 ft | 344 kts | 202° |
| 2026-05-05 12:34 | 39.13913 | -0.60643 | 21948 ft | 342 kts | 201° |
| 2026-05-05 12:34 | 39.11622 | -0.61447 | 21448 ft | 341 kts | 201° |
| 2026-05-05 12:35 | 39.09333 | -0.62253 | 20964 ft | 340 kts | 201° |
| 2026-05-05 12:35 | 39.07054 | -0.63057 | 20485 ft | 338 kts | 201° |
| 2026-05-05 12:35 | 39.04790 | -0.63857 | 20017 ft | 336 kts | 201° |
| 2026-05-05 12:35 | 39.02532 | -0.64653 | 19537 ft | 335 kts | 201° |
| 2026-05-05 12:36 | 39.00300 | -0.65439 | 19060 ft | 332 kts | 201° |
| 2026-05-05 12:36 | 38.98067 | -0.66228 | 18548 ft | 332 kts | 201° |
| 2026-05-05 12:36 | 38.95866 | -0.67004 | 18058 ft | 332 kts | 201° |
| 2026-05-05 12:36 | 38.93633 | -0.67790 | 17382 ft | 333 kts | 201° |
| 2026-05-05 12:37 | 38.91397 | -0.68576 | 16826 ft | 332 kts | 200° |
| 2026-05-05 12:37 | 38.89185 | -0.69351 | 16356 ft | 328 kts | 200° |
| 2026-05-05 12:37 | 38.86999 | -0.70118 | 15908 ft | 323 kts | 200° |
| 2026-05-05 12:37 | 38.84843 | -0.70874 | 15496 ft | 320 kts | 200° |
| 2026-05-05 12:38 | 38.82697 | -0.71632 | 15093 ft | 318 kts | 200° |
| 2026-05-05 12:38 | 38.80571 | -0.72384 | 14682 ft | 316 kts | 200° |
| 2026-05-05 12:38 | 38.78453 | -0.73130 | 14262 ft | 314 kts | 200° |
| 2026-05-05 12:38 | 38.76354 | -0.73866 | 13865 ft | 311 kts | 200° |
| 2026-05-05 12:39 | 38.74304 | -0.74583 | 13532 ft | 306 kts | 199° |
| 2026-05-05 12:39 | 38.72290 | -0.75288 | 13343 ft | 295 kts | 200° |
| 2026-05-05 12:39 | 38.70353 | -0.75964 | 13219 ft | 283 kts | 200° |
| 2026-05-05 12:39 | 38.68489 | -0.76615 | 13082 ft | 272 kts | 200° |
| 2026-05-05 12:40 | 38.66704 | -0.77238 | 12968 ft | 260 kts | 200° |
| 2026-05-05 12:40 | 38.64989 | -0.77837 | 12847 ft | 251 kts | 200° |
| 2026-05-05 12:40 | 38.63323 | -0.78420 | 12599 ft | 246 kts | 200° |
| 2026-05-05 12:40 | 38.61680 | -0.78995 | 12293 ft | 244 kts | 200° |
| 2026-05-05 12:41 | 38.60040 | -0.79570 | 11958 ft | 244 kts | 200° |
| 2026-05-05 12:41 | 38.58397 | -0.80145 | 11614 ft | 244 kts | 200° |
| 2026-05-05 12:41 | 38.57361 | -0.80506 | 11451 ft | 242 kts | 199° |
| 2026-05-05 12:41 | 38.56200 | -0.80912 | 11285 ft | 239 kts | 199° |
| 2026-05-05 12:42 | 38.54608 | -0.81466 | 11017 ft | 236 kts | 199° |
| 2026-05-05 12:42 | 38.53044 | -0.82082 | 10706 ft | 234 kts | 210° |
| 2026-05-05 12:42 | 38.51769 | -0.83321 | 10445 ft | 231 kts | 231° |
| 2026-05-05 12:42 | 38.50953 | -0.85072 | 10295 ft | 231 kts | 250° |
| 2026-05-05 12:43 | 38.50673 | -0.87088 | 10227 ft | 233 kts | 269° |
| 2026-05-05 12:43 | 38.50963 | -0.89130 | 10117 ft | 237 kts | 288° |
| 2026-05-05 12:43 | 38.51640 | -0.91029 | 10039 ft | 238 kts | 294° |
| 2026-05-05 12:43 | 38.52375 | -0.92924 | 9984 ft | 238 kts | 294° |
| 2026-05-05 12:44 | 38.53297 | -0.94687 | 9912 ft | 242 kts | 312° |
| 2026-05-05 12:44 | 38.54633 | -0.96026 | 9914 ft | 246 kts | 323° |
| 2026-05-05 12:44 | 38.56060 | -0.97230 | 9925 ft | 245 kts | 323° |
| 2026-05-05 12:44 | 38.57479 | -0.98438 | 9935 ft | 245 kts | 323° |
| 2026-05-05 12:45 | 38.58996 | -0.99445 | 9920 ft | 249 kts | 340° |
| 2026-05-05 12:45 | 38.60732 | -0.99630 | 9930 ft | 255 kts | 6° |
| 2026-05-05 12:45 | 38.62415 | -0.98887 | 9943 ft | 259 kts | 30° |
| 2026-05-05 12:45 | 38.63749 | -0.97354 | 9950 ft | 260 kts | 53° |
| 2026-05-05 12:46 | 38.64513 | -0.95270 | 9941 ft | 261 kts | 79° |
| 2026-05-05 12:46 | 38.64560 | -0.92975 | 9940 ft | 258 kts | 103° |
| 2026-05-05 12:46 | 38.63905 | -0.90872 | 9941 ft | 253 kts | 127° |
| 2026-05-05 12:46 | 38.62695 | -0.89277 | 9954 ft | 248 kts | 147° |
| 2026-05-05 12:47 | 38.61290 | -0.88049 | 9940 ft | 248 kts | 149° |
| 2026-05-05 12:47 | 38.59853 | -0.86823 | 9925 ft | 248 kts | 149° |
| 2026-05-05 12:47 | 38.58422 | -0.85577 | 9934 ft | 248 kts | 149° |